Startpagina
METAR-TAF:

METAR-TAF

Vliegvelden :

Mauritius, Mauritius

breedte: 20-26S, lengte: 057-40E, hoogte: 55 m

Actueel weer

Dit bericht is 14 minuten geleden gemaakt, om 09:00 UTC
Wind 12 kt uit het oostzuidoosten
Temperatuur 26°C
Vochtigheid 61%
Druk 1022 hPa
Zicht 10 km of meer
Verspreide wolken op 1800 ft

METAR: FIMP 190900Z 11012KT 9999 SCT018 26/18 Q1022

Tijdstip: 13:14 (09:14 UTC)

Verwachting

Dit bericht is 4 uur en het 4 minuten geleden gemaakt, om 05:10 UTC
Verwachting geldig van 19 om 06 UTC tot 20 om 12 UTC
Wind 12 kt uit het oostzuidoosten met uitschieters tot 25 kt
Zicht 10 km of meer
Verspreide wolken op 1800 ft

TAF: FIMP 190510Z 1906/2012 11012G25KT 9999 SCT018

Waarnemingen en weersverwachtingen van meer dan 4000 vliegvelden (METAR en TAF).

De beschikbare stations zijn de gele en rode punten op de kaart.

Ga met uw muis naar het station om de naam te zien.

Klik dan om waarnemingen en weersverwachtingen te zien.

kaart wijzigen: klik op de groene knoppen met een zwart kruis om in te zoomen, op de groene knop met een streepje om uit te zoomen of op de groene pijlen voor aangrenzende kaarten.


METAR-TAF: